sensor_id;sensor_type;location;lat;lon;timestamp;temperature;humidity
55329;DHT22;41205;44.264;19.884;2023-04-15T00:00:49;230.90;2252.80
55329;DHT22;41205;44.264;19.884;2023-04-15T00:03:16;230.80;2252.80
55329;DHT22;41205;44.264;19.884;2023-04-15T00:05:43;230.80;2252.80
55329;DHT22;41205;44.264;19.884;2023-04-15T00:08:09;230.80;2252.80
55329;DHT22;41205;44.264;19.884;2023-04-15T00:10:35;230.90;2252.80
55329;DHT22;41205;44.264;19.884;2023-04-15T00:13:00;230.90;2252.80
55329;DHT22;41205;44.264;19.884;2023-04-15T00:15:27;230.90;2252.80
55329;DHT22;41205;44.264;19.884;2023-04-15T00:17:53;231.00;2252.80
55329;DHT22;41205;44.264;19.884;2023-04-15T00:20:18;231.00;2252.80
55329;DHT22;41205;44.264;19.884;2023-04-15T00:22:44;231.10;2252.80
55329;DHT22;41205;44.264;19.884;2023-04-15T00:25:10;231.10;2252.80
55329;DHT22;41205;44.264;19.884;2023-04-15T00:27:37;231.10;2252.80
55329;DHT22;41205;44.264;19.884;2023-04-15T00:30:03;231.10;2252.80
55329;DHT22;41205;44.264;19.884;2023-04-15T00:32:29;231.00;2252.80
55329;DHT22;41205;44.264;19.884;2023-04-15T00:34:55;231.10;2252.80
55329;DHT22;41205;44.264;19.884;2023-04-15T00:37:21;231.10;2252.80
55329;DHT22;41205;44.264;19.884;2023-04-15T00:39:48;231.10;2252.80
55329;DHT22;41205;44.264;19.884;2023-04-15T00:42:14;231.20;2252.80
55329;DHT22;41205;44.264;19.884;2023-04-15T00:44:40;231.20;2252.80
55329;DHT22;41205;44.264;19.884;2023-04-15T00:47:05;231.20;2252.80
55329;DHT22;41205;44.264;19.884;2023-04-15T00:49:31;231.10;2252.80
55329;DHT22;41205;44.264;19.884;2023-04-15T00:51:57;231.10;2252.80
55329;DHT22;41205;44.264;19.884;2023-04-15T00:54:23;231.20;2252.80
55329;DHT22;41205;44.264;19.884;2023-04-15T00:56:49;231.20;2252.80
55329;DHT22;41205;44.264;19.884;2023-04-15T00:59:16;230.80;2252.80
55329;DHT22;41205;44.264;19.884;2023-04-15T01:01:43;230.40;2252.80
55329;DHT22;41205;44.264;19.884;2023-04-15T01:04:09;230.50;2252.80
55329;DHT22;41205;44.264;19.884;2023-04-15T01:06:36;230.60;2252.80
55329;DHT22;41205;44.264;19.884;2023-04-15T01:09:02;230.50;2252.80
55329;DHT22;41205;44.264;19.884;2023-04-15T01:11:28;230.70;2252.80
55329;DHT22;41205;44.264;19.884;2023-04-15T01:13:57;230.80;2252.80
55329;DHT22;41205;44.264;19.884;2023-04-15T01:16:23;230.80;2252.80
55329;DHT22;41205;44.264;19.884;2023-04-15T01:18:48;230.80;2252.80
55329;DHT22;41205;44.264;19.884;2023-04-15T01:21:14;230.70;2252.80
55329;DHT22;41205;44.264;19.884;2023-04-15T01:23:40;230.70;2252.80
55329;DHT22;41205;44.264;19.884;2023-04-15T01:26:07;230.80;2252.80
55329;DHT22;41205;44.264;19.884;2023-04-15T01:28:34;230.70;2252.80
55329;DHT22;41205;44.264;19.884;2023-04-15T01:31:08;230.80;2252.80
55329;DHT22;41205;44.264;19.884;2023-04-15T01:33:34;230.80;2252.80
55329;DHT22;41205;44.264;19.884;2023-04-15T01:36:00;230.90;2252.80
55329;DHT22;41205;44.264;19.884;2023-04-15T01:38:26;231.00;2252.80
55329;DHT22;41205;44.264;19.884;2023-04-15T01:40:52;231.00;2252.80
55329;DHT22;41205;44.264;19.884;2023-04-15T01:43:18;231.10;2252.80
55329;DHT22;41205;44.264;19.884;2023-04-15T01:45:44;231.10;2252.80
55329;DHT22;41205;44.264;19.884;2023-04-15T01:48:10;231.10;2252.80
55329;DHT22;41205;44.264;19.884;2023-04-15T01:50:36;231.20;2252.80
55329;DHT22;41205;44.264;19.884;2023-04-15T01:53:03;231.20;2252.80
55329;DHT22;41205;44.264;19.884;2023-04-15T01:55:28;231.20;2252.80
55329;DHT22;41205;44.264;19.884;2023-04-15T01:57:55;231.20;2252.80
55329;DHT22;41205;44.264;19.884;2023-04-15T02:00:21;231.20;2252.80
55329;DHT22;41205;44.264;19.884;2023-04-15T02:02:47;231.30;2252.80
55329;DHT22;41205;44.264;19.884;2023-04-15T02:05:13;231.30;2252.80
55329;DHT22;41205;44.264;19.884;2023-04-15T02:07:43;231.30;2252.80
55329;DHT22;41205;44.264;19.884;2023-04-15T02:10:09;231.30;2252.80
55329;DHT22;41205;44.264;19.884;2023-04-15T02:12:36;231.30;2252.80
55329;DHT22;41205;44.264;19.884;2023-04-15T02:15:01;231.30;2252.80
55329;DHT22;41205;44.264;19.884;2023-04-15T02:17:27;231.30;2252.80
55329;DHT22;41205;44.264;19.884;2023-04-15T02:19:55;231.30;2252.80
55329;DHT22;41205;44.264;19.884;2023-04-15T02:22:21;231.20;2252.80
55329;DHT22;41205;44.264;19.884;2023-04-15T02:24:46;231.20;2252.80
55329;DHT22;41205;44.264;19.884;2023-04-15T02:27:16;231.10;2252.80
55329;DHT22;41205;44.264;19.884;2023-04-15T02:29:45;231.10;2252.80
55329;DHT22;41205;44.264;19.884;2023-04-15T02:32:14;231.10;2252.80
55329;DHT22;41205;44.264;19.884;2023-04-15T02:34:39;231.10;2252.80
55329;DHT22;41205;44.264;19.884;2023-04-15T02:37:08;231.10;2252.80
55329;DHT22;41205;44.264;19.884;2023-04-15T02:39:34;231.20;2252.80
55329;DHT22;41205;44.264;19.884;2023-04-15T02:42:00;231.20;2252.80
55329;DHT22;41205;44.264;19.884;2023-04-15T02:44:26;231.30;2252.80
55329;DHT22;41205;44.264;19.884;2023-04-15T02:46:52;231.30;2252.80
55329;DHT22;41205;44.264;19.884;2023-04-15T02:49:22;231.30;2252.80
55329;DHT22;41205;44.264;19.884;2023-04-15T02:51:48;231.30;2252.80
55329;DHT22;41205;44.264;19.884;2023-04-15T02:54:21;231.30;2252.80
55329;DHT22;41205;44.264;19.884;2023-04-15T02:56:50;231.30;2252.80
55329;DHT22;41205;44.264;19.884;2023-04-15T02:59:19;231.20;2252.80
55329;DHT22;41205;44.264;19.884;2023-04-15T03:01:45;231.30;2252.80
55329;DHT22;41205;44.264;19.884;2023-04-15T03:04:11;231.30;2252.80
55329;DHT22;41205;44.264;19.884;2023-04-15T03:06:37;231.30;2252.80
55329;DHT22;41205;44.264;19.884;2023-04-15T03:09:03;231.30;2252.80
55329;DHT22;41205;44.264;19.884;2023-04-15T03:11:29;231.30;2252.80
55329;DHT22;41205;44.264;19.884;2023-04-15T03:13:56;231.20;2252.80
55329;DHT22;41205;44.264;19.884;2023-04-15T03:16:22;231.20;2252.80
55329;DHT22;41205;44.264;19.884;2023-04-15T03:18:48;231.20;2252.80
55329;DHT22;41205;44.264;19.884;2023-04-15T03:21:14;231.20;2252.80
55329;DHT22;41205;44.264;19.884;2023-04-15T03:23:39;231.20;2252.80
55329;DHT22;41205;44.264;19.884;2023-04-15T03:26:05;231.20;2252.80
55329;DHT22;41205;44.264;19.884;2023-04-15T03:28:31;231.20;2252.80
55329;DHT22;41205;44.264;19.884;2023-04-15T03:30:57;231.30;2252.80
55329;DHT22;41205;44.264;19.884;2023-04-15T03:33:23;231.20;2252.80
55329;DHT22;41205;44.264;19.884;2023-04-15T03:35:52;231.10;2252.80
55329;DHT22;41205;44.264;19.884;2023-04-15T03:38:18;230.90;2252.80
55329;DHT22;41205;44.264;19.884;2023-04-15T03:40:45;230.70;2252.80
55329;DHT22;41205;44.264;19.884;2023-04-15T03:43:11;230.80;2252.80
55329;DHT22;41205;44.264;19.884;2023-04-15T03:45:36;230.90;2252.80
55329;DHT22;41205;44.264;19.884;2023-04-15T03:48:02;230.90;2252.80
55329;DHT22;41205;44.264;19.884;2023-04-15T03:50:28;230.90;2252.80
55329;DHT22;41205;44.264;19.884;2023-04-15T03:52:54;230.90;2252.80
55329;DHT22;41205;44.264;19.884;2023-04-15T03:55:20;230.90;2252.80
55329;DHT22;41205;44.264;19.884;2023-04-15T03:57:46;231.00;2252.80
55329;DHT22;41205;44.264;19.884;2023-04-15T04:00:11;230.80;2252.80
55329;DHT22;41205;44.264;19.884;2023-04-15T04:02:37;230.80;2252.80
55329;DHT22;41205;44.264;19.884;2023-04-15T04:05:03;230.80;2252.80
55329;DHT22;41205;44.264;19.884;2023-04-15T04:07:29;230.90;2252.80
55329;DHT22;41205;44.264;19.884;2023-04-15T04:09:56;230.90;2252.80
55329;DHT22;41205;44.264;19.884;2023-04-15T04:12:25;230.80;2252.80
55329;DHT22;41205;44.264;19.884;2023-04-15T04:14:51;230.80;2252.80
55329;DHT22;41205;44.264;19.884;2023-04-15T04:17:17;230.90;2252.80
55329;DHT22;41205;44.264;19.884;2023-04-15T04:19:42;230.90;2252.80
55329;DHT22;41205;44.264;19.884;2023-04-15T04:22:08;230.90;2252.80
55329;DHT22;41205;44.264;19.884;2023-04-15T04:24:34;231.00;2252.80
55329;DHT22;41205;44.264;19.884;2023-04-15T04:26:59;231.10;2252.80
55329;DHT22;41205;44.264;19.884;2023-04-15T04:29:25;231.30;2252.80
55329;DHT22;41205;44.264;19.884;2023-04-15T04:31:51;256.00;2252.80
55329;DHT22;41205;44.264;19.884;2023-04-15T04:34:17;256.10;2252.80
55329;DHT22;41205;44.264;19.884;2023-04-15T04:36:42;256.20;2252.80
55329;DHT22;41205;44.264;19.884;2023-04-15T04:39:08;256.40;2252.80
55329;DHT22;41205;44.264;19.884;2023-04-15T04:41:34;256.50;2252.80
55329;DHT22;41205;44.264;19.884;2023-04-15T04:44:00;256.70;2252.80
55329;DHT22;41205;44.264;19.884;2023-04-15T04:46:26;256.60;2252.80
55329;DHT22;41205;44.264;19.884;2023-04-15T04:48:52;256.60;2252.80
55329;DHT22;41205;44.264;19.884;2023-04-15T04:51:17;256.50;2252.80
55329;DHT22;41205;44.264;19.884;2023-04-15T04:53:43;256.70;2252.80
55329;DHT22;41205;44.264;19.884;2023-04-15T04:56:09;281.60;2278.40
55329;DHT22;41205;44.264;19.884;2023-04-15T04:58:35;281.70;2278.40
55329;DHT22;41205;44.264;19.884;2023-04-15T05:01:00;281.80;2278.40
55329;DHT22;41205;44.264;19.884;2023-04-15T05:03:27;282.00;2278.40
55329;DHT22;41205;44.264;19.884;2023-04-15T05:05:53;282.10;2278.40
55329;DHT22;41205;44.264;19.884;2023-04-15T05:08:19;281.70;2278.40
55329;DHT22;41205;44.264;19.884;2023-04-15T05:10:45;281.80;2278.40
55329;DHT22;41205;44.264;19.884;2023-04-15T05:13:11;281.90;2278.40
55329;DHT22;41205;44.264;19.884;2023-04-15T05:15:36;281.90;2278.40
55329;DHT22;41205;44.264;19.884;2023-04-15T05:18:05;282.00;2278.40
55329;DHT22;41205;44.264;19.884;2023-04-15T05:20:31;282.30;2278.40
55329;DHT22;41205;44.264;19.884;2023-04-15T05:22:57;281.90;2278.40
55329;DHT22;41205;44.264;19.884;2023-04-15T05:25:22;281.80;2278.40
55329;DHT22;41205;44.264;19.884;2023-04-15T05:27:48;281.90;2278.40
55329;DHT22;41205;44.264;19.884;2023-04-15T05:30:14;307.70;2304.00
55329;DHT22;41205;44.264;19.884;2023-04-15T05:32:39;307.90;2304.00
55329;DHT22;41205;44.264;19.884;2023-04-15T05:35:06;307.50;2304.00
55329;DHT22;41205;44.264;19.884;2023-04-15T05:37:32;307.20;2304.00
55329;DHT22;41205;44.264;19.884;2023-04-15T05:39:58;307.40;2304.00
55329;DHT22;41205;44.264;19.884;2023-04-15T05:42:23;307.20;2304.00
55329;DHT22;41205;44.264;19.884;2023-04-15T05:44:49;308.10;2304.00
55329;DHT22;41205;44.264;19.884;2023-04-15T05:47:15;435.80;1920.00
55329;DHT22;41205;44.264;19.884;2023-04-15T05:49:41;486.60;1664.00
55329;DHT22;41205;44.264;19.884;2023-04-15T05:52:07;512.70;1510.40
55329;DHT22;41205;44.264;19.884;2023-04-15T05:54:34;564.00;1433.60
55329;DHT22;41205;44.264;19.884;2023-04-15T05:56:59;614.70;1331.20
55329;DHT22;41205;44.264;19.884;2023-04-15T05:59:26;615.00;1305.60
55329;DHT22;41205;44.264;19.884;2023-04-15T06:01:52;665.70;1254.40
55329;DHT22;41205;44.264;19.884;2023-04-15T06:04:18;665.90;1203.20
55329;DHT22;41205;44.264;19.884;2023-04-15T06:06:44;691.30;1177.60
55329;DHT22;41205;44.264;19.884;2023-04-15T06:09:09;665.90;1177.60
55329;DHT22;41205;44.264;19.884;2023-04-15T06:11:35;640.30;1203.20
55329;DHT22;41205;44.264;19.884;2023-04-15T06:14:01;640.90;1177.60
55329;DHT22;41205;44.264;19.884;2023-04-15T06:16:27;691.50;1126.40
55329;DHT22;41205;44.264;19.884;2023-04-15T06:18:53;717.20;1126.40
55329;DHT22;41205;44.264;19.884;2023-04-15T06:21:18;717.20;1100.80
55329;DHT22;41205;44.264;19.884;2023-04-15T06:23:44;742.80;1100.80
55329;DHT22;41205;44.264;19.884;2023-04-15T06:26:10;742.80;1075.20
55329;DHT22;41205;44.264;19.884;2023-04-15T06:28:36;768.00;1075.20
55329;DHT22;41205;44.264;19.884;2023-04-15T06:31:02;768.50;1049.60
55329;DHT22;41205;44.264;19.884;2023-04-15T06:33:28;794.20;1024.00
55329;DHT22;41205;44.264;19.884;2023-04-15T06:35:54;819.30;998.40
55329;DHT22;41205;44.264;19.884;2023-04-15T06:38:19;819.60;998.40
55329;DHT22;41205;44.264;19.884;2023-04-15T06:40:45;819.50;972.80
55329;DHT22;41205;44.264;19.884;2023-04-15T06:43:11;819.20;998.40
55329;DHT22;41205;44.264;19.884;2023-04-15T06:45:37;819.60;972.80
55329;DHT22;41205;44.264;19.884;2023-04-15T06:48:03;794.50;972.80
55329;DHT22;41205;44.264;19.884;2023-04-15T06:50:29;819.60;972.80
55329;DHT22;41205;44.264;19.884;2023-04-15T06:52:54;820.00;972.80
55329;DHT22;41205;44.264;19.884;2023-04-15T06:55:20;845.70;947.20
55329;DHT22;41205;44.264;19.884;2023-04-15T06:57:46;870.70;947.20
55329;DHT22;41205;44.264;19.884;2023-04-15T07:02:38;845.10;947.20
55329;DHT22;41205;44.264;19.884;2023-04-15T07:05:05;870.50;947.20
55329;DHT22;41205;44.264;19.884;2023-04-15T07:07:31;845.20;947.20
55329;DHT22;41205;44.264;19.884;2023-04-15T07:09:57;845.70;921.60
55329;DHT22;41205;44.264;19.884;2023-04-15T07:12:23;871.30;921.60
55329;DHT22;41205;44.264;19.884;2023-04-15T07:14:49;896.20;896.00
55329;DHT22;41205;44.264;19.884;2023-04-15T07:17:14;896.60;870.40
55329;DHT22;41205;44.264;19.884;2023-04-15T07:19:40;922.00;896.00
55329;DHT22;41205;44.264;19.884;2023-04-15T07:22:06;896.50;870.40
55329;DHT22;41205;44.264;19.884;2023-04-15T07:24:32;871.30;896.00
55329;DHT22;41205;44.264;19.884;2023-04-15T07:26:58;896.70;870.40
55329;DHT22;41205;44.264;19.884;2023-04-15T07:31:50;896.60;896.00
55329;DHT22;41205;44.264;19.884;2023-04-15T07:34:18;921.80;896.00
55329;DHT22;41205;44.264;19.884;2023-04-15T07:36:45;921.70;896.00
55329;DHT22;41205;44.264;19.884;2023-04-15T07:39:14;896.90;870.40
55329;DHT22;41205;44.264;19.884;2023-04-15T07:41:41;896.80;870.40
55329;DHT22;41205;44.264;19.884;2023-04-15T07:44:06;896.00;896.00
55329;DHT22;41205;44.264;19.884;2023-04-15T07:46:32;871.10;896.00
55329;DHT22;41205;44.264;19.884;2023-04-15T07:48:58;896.80;870.40
55329;DHT22;41205;44.264;19.884;2023-04-15T07:51:24;922.10;896.00
55329;DHT22;41205;44.264;19.884;2023-04-15T07:53:50;896.90;870.40
55329;DHT22;41205;44.264;19.884;2023-04-15T07:56:15;871.30;896.00
55329;DHT22;41205;44.264;19.884;2023-04-15T07:58:41;896.40;870.40
55329;DHT22;41205;44.264;19.884;2023-04-15T08:01:08;896.90;870.40
55329;DHT22;41205;44.264;19.884;2023-04-15T08:03:33;947.50;870.40
55329;DHT22;41205;44.264;19.884;2023-04-15T08:05:59;922.40;870.40
55329;DHT22;41205;44.264;19.884;2023-04-15T08:08:25;896.60;870.40
55329;DHT22;41205;44.264;19.884;2023-04-15T08:10:51;871.00;896.00
55329;DHT22;41205;44.264;19.884;2023-04-15T08:13:17;845.60;921.60
55329;DHT22;41205;44.264;19.884;2023-04-15T08:15:43;819.90;921.60
55329;DHT22;41205;44.264;19.884;2023-04-15T08:18:09;768.60;998.40
55329;DHT22;41205;44.264;19.884;2023-04-15T08:20:35;768.30;998.40
55329;DHT22;41205;44.264;19.884;2023-04-15T08:23:01;768.30;998.40
55329;DHT22;41205;44.264;19.884;2023-04-15T08:25:27;768.60;998.40
55329;DHT22;41205;44.264;19.884;2023-04-15T08:27:56;819.40;947.20
55329;DHT22;41205;44.264;19.884;2023-04-15T08:30:22;819.80;921.60
55329;DHT22;41205;44.264;19.884;2023-04-15T08:32:49;819.20;921.60
55329;DHT22;41205;44.264;19.884;2023-04-15T08:35:14;819.30;947.20
55329;DHT22;41205;44.264;19.884;2023-04-15T08:37:40;793.60;972.80
55329;DHT22;41205;44.264;19.884;2023-04-15T08:40:07;768.20;972.80
55329;DHT22;41205;44.264;19.884;2023-04-15T08:42:43;742.60;1049.60
55329;DHT22;41205;44.264;19.884;2023-04-15T08:45:09;691.60;1049.60
55329;DHT22;41205;44.264;19.884;2023-04-15T08:47:37;640.70;1126.40
55329;DHT22;41205;44.264;19.884;2023-04-15T08:50:09;665.60;1100.80
55329;DHT22;41205;44.264;19.884;2023-04-15T08:52:36;615.10;1177.60
55329;DHT22;41205;44.264;19.884;2023-04-15T08:55:02;614.40;1177.60
55329;DHT22;41205;44.264;19.884;2023-04-15T08:57:28;589.20;1228.80
55329;DHT22;41205;44.264;19.884;2023-04-15T08:59:57;589.30;1203.20
55329;DHT22;41205;44.264;19.884;2023-04-15T09:02:23;589.30;1228.80
55329;DHT22;41205;44.264;19.884;2023-04-15T09:04:50;564.10;1203.20
55329;DHT22;41205;44.264;19.884;2023-04-15T09:07:16;564.10;1228.80
55329;DHT22;41205;44.264;19.884;2023-04-15T09:09:42;564.10;1228.80
55329;DHT22;41205;44.264;19.884;2023-04-15T09:12:08;563.70;1254.40
55329;DHT22;41205;44.264;19.884;2023-04-15T09:14:35;564.10;1254.40
55329;DHT22;41205;44.264;19.884;2023-04-15T09:17:04;588.90;1254.40
55329;DHT22;41205;44.264;19.884;2023-04-15T09:19:30;589.20;1254.40
55329;DHT22;41205;44.264;19.884;2023-04-15T09:21:58;589.70;1203.20
55329;DHT22;41205;44.264;19.884;2023-04-15T09:24:24;589.60;1203.20
55329;DHT22;41205;44.264;19.884;2023-04-15T09:26:52;589.20;1203.20
55329;DHT22;41205;44.264;19.884;2023-04-15T09:29:19;564.10;1254.40
55329;DHT22;41205;44.264;19.884;2023-04-15T09:31:48;564.10;1228.80
55329;DHT22;41205;44.264;19.884;2023-04-15T09:34:14;564.10;1254.40
55329;DHT22;41205;44.264;19.884;2023-04-15T09:36:54;588.90;1228.80
55329;DHT22;41205;44.264;19.884;2023-04-15T09:39:20;589.00;1228.80
55329;DHT22;41205;44.264;19.884;2023-04-15T09:41:46;563.90;1254.40
55329;DHT22;41205;44.264;19.884;2023-04-15T09:44:25;563.70;1254.40
55329;DHT22;41205;44.264;19.884;2023-04-15T09:46:50;563.80;1254.40
55329;DHT22;41205;44.264;19.884;2023-04-15T09:49:16;564.00;1280.00
55329;DHT22;41205;44.264;19.884;2023-04-15T09:51:42;563.70;1280.00
55329;DHT22;41205;44.264;19.884;2023-04-15T09:54:09;563.60;1280.00
55329;DHT22;41205;44.264;19.884;2023-04-15T09:56:36;563.60;1305.60
55329;DHT22;41205;44.264;19.884;2023-04-15T09:59:04;563.60;1228.80
55329;DHT22;41205;44.264;19.884;2023-04-15T10:01:30;563.30;1305.60
55329;DHT22;41205;44.264;19.884;2023-04-15T10:03:57;538.50;1280.00
55329;DHT22;41205;44.264;19.884;2023-04-15T10:06:26;538.20;1305.60
55329;DHT22;41205;44.264;19.884;2023-04-15T10:08:53;538.10;1331.20
55329;DHT22;41205;44.264;19.884;2023-04-15T10:11:20;538.50;1280.00
55329;DHT22;41205;44.264;19.884;2023-04-15T10:13:49;563.50;1228.80
55329;DHT22;41205;44.264;19.884;2023-04-15T10:16:16;563.40;1228.80
55329;DHT22;41205;44.264;19.884;2023-04-15T10:18:45;563.60;1228.80
55329;DHT22;41205;44.264;19.884;2023-04-15T10:21:10;563.60;1254.40
55329;DHT22;41205;44.264;19.884;2023-04-15T10:23:38;563.80;1254.40
55329;DHT22;41205;44.264;19.884;2023-04-15T10:26:05;563.60;1203.20
55329;DHT22;41205;44.264;19.884;2023-04-15T10:28:32;563.90;1280.00
55329;DHT22;41205;44.264;19.884;2023-04-15T10:30:57;564.00;1254.40
55329;DHT22;41205;44.264;19.884;2023-04-15T10:33:24;563.50;1280.00
55329;DHT22;41205;44.264;19.884;2023-04-15T10:35:52;563.60;1280.00
55329;DHT22;41205;44.264;19.884;2023-04-15T10:41:34;563.50;1254.40
55329;DHT22;41205;44.264;19.884;2023-04-15T10:44:03;563.30;1280.00
55329;DHT22;41205;44.264;19.884;2023-04-15T10:49:10;563.30;1280.00
55329;DHT22;41205;44.264;19.884;2023-04-15T10:51:38;563.70;1228.80
55329;DHT22;41205;44.264;19.884;2023-04-15T10:54:15;564.00;1254.40
55329;DHT22;41205;44.264;19.884;2023-04-15T10:56:43;563.90;1254.40
55329;DHT22;41205;44.264;19.884;2023-04-15T10:59:09;563.60;1254.40
55329;DHT22;41205;44.264;19.884;2023-04-15T11:02:11;563.70;1254.40
55329;DHT22;41205;44.264;19.884;2023-04-15T11:04:57;563.90;1305.60
55329;DHT22;41205;44.264;19.884;2023-04-15T11:07:53;563.40;1254.40
55329;DHT22;41205;44.264;19.884;2023-04-15T11:12:52;563.60;1254.40
55329;DHT22;41205;44.264;19.884;2023-04-15T11:18:14;564.00;1228.80
55329;DHT22;41205;44.264;19.884;2023-04-15T11:20:43;588.90;1177.60
55329;DHT22;41205;44.264;19.884;2023-04-15T11:23:13;563.80;1203.20
55329;DHT22;41205;44.264;19.884;2023-04-15T11:25:40;563.70;1203.20
55329;DHT22;41205;44.264;19.884;2023-04-15T11:28:06;563.60;1203.20
55329;DHT22;41205;44.264;19.884;2023-04-15T11:30:36;563.60;1228.80
55329;DHT22;41205;44.264;19.884;2023-04-15T11:33:04;563.60;1228.80
55329;DHT22;41205;44.264;19.884;2023-04-15T11:35:30;563.30;1203.20
55329;DHT22;41205;44.264;19.884;2023-04-15T11:37:56;563.30;1254.40
55329;DHT22;41205;44.264;19.884;2023-04-15T11:40:27;563.60;1203.20
55329;DHT22;41205;44.264;19.884;2023-04-15T11:43:07;563.30;1228.80
55329;DHT22;41205;44.264;19.884;2023-04-15T11:45:33;563.40;1254.40
55329;DHT22;41205;44.264;19.884;2023-04-15T11:48:09;563.40;1254.40
55329;DHT22;41205;44.264;19.884;2023-04-15T11:50:37;563.90;1203.20
55329;DHT22;41205;44.264;19.884;2023-04-15T11:53:06;564.00;1203.20
55329;DHT22;41205;44.264;19.884;2023-04-15T11:55:41;588.80;1152.00
55329;DHT22;41205;44.264;19.884;2023-04-15T12:00:58;564.10;1152.00
55329;DHT22;41205;44.264;19.884;2023-04-15T12:11:26;563.30;1228.80
55329;DHT22;41205;44.264;19.884;2023-04-15T12:16:28;538.50;1177.60
55329;DHT22;41205;44.264;19.884;2023-04-15T12:18:58;563.30;1254.40
55329;DHT22;41205;44.264;19.884;2023-04-15T12:21:26;563.40;1177.60
55329;DHT22;41205;44.264;19.884;2023-04-15T12:23:53;563.30;1203.20
55329;DHT22;41205;44.264;19.884;2023-04-15T12:26:34;563.40;1203.20
55329;DHT22;41205;44.264;19.884;2023-04-15T12:29:01;563.30;1203.20
55329;DHT22;41205;44.264;19.884;2023-04-15T12:31:27;563.60;1203.20
55329;DHT22;41205;44.264;19.884;2023-04-15T12:33:59;563.70;1203.20
55329;DHT22;41205;44.264;19.884;2023-04-15T12:36:26;563.70;1203.20
55329;DHT22;41205;44.264;19.884;2023-04-15T12:38:52;563.40;1203.20
55329;DHT22;41205;44.264;19.884;2023-04-15T12:41:19;563.40;1203.20
55329;DHT22;41205;44.264;19.884;2023-04-15T12:43:45;563.70;1203.20
55329;DHT22;41205;44.264;19.884;2023-04-15T12:46:12;564.10;1152.00
55329;DHT22;41205;44.264;19.884;2023-04-15T12:48:38;564.00;1152.00
55329;DHT22;41205;44.264;19.884;2023-04-15T12:51:04;588.80;1228.80
55329;DHT22;41205;44.264;19.884;2023-04-15T12:53:30;564.10;1203.20
55329;DHT22;41205;44.264;19.884;2023-04-15T12:55:56;588.90;1152.00
55329;DHT22;41205;44.264;19.884;2023-04-15T12:58:22;588.90;1152.00
55329;DHT22;41205;44.264;19.884;2023-04-15T13:00:47;588.90;1177.60
55329;DHT22;41205;44.264;19.884;2023-04-15T13:03:14;563.90;1203.20
55329;DHT22;41205;44.264;19.884;2023-04-15T13:05:40;563.70;1228.80
55329;DHT22;41205;44.264;19.884;2023-04-15T13:08:06;563.60;1177.60
55329;DHT22;41205;44.264;19.884;2023-04-15T13:10:33;563.60;1203.20
55329;DHT22;41205;44.264;19.884;2023-04-15T13:13:01;563.40;1203.20
55329;DHT22;41205;44.264;19.884;2023-04-15T13:15:28;563.40;1203.20
55329;DHT22;41205;44.264;19.884;2023-04-15T13:17:54;563.30;1228.80
55329;DHT22;41205;44.264;19.884;2023-04-15T13:20:20;563.60;1228.80
55329;DHT22;41205;44.264;19.884;2023-04-15T13:22:46;563.50;1203.20
55329;DHT22;41205;44.264;19.884;2023-04-15T13:25:12;563.60;1228.80
55329;DHT22;41205;44.264;19.884;2023-04-15T13:27:38;563.40;1228.80
55329;DHT22;41205;44.264;19.884;2023-04-15T13:30:05;563.40;1228.80
55329;DHT22;41205;44.264;19.884;2023-04-15T13:32:30;563.60;1203.20
55329;DHT22;41205;44.264;19.884;2023-04-15T13:34:56;563.50;1177.60
55329;DHT22;41205;44.264;19.884;2023-04-15T13:37:29;563.70;1152.00
55329;DHT22;41205;44.264;19.884;2023-04-15T13:39:55;563.80;1228.80
55329;DHT22;41205;44.264;19.884;2023-04-15T13:42:24;563.90;1152.00
55329;DHT22;41205;44.264;19.884;2023-04-15T13:44:50;563.90;1152.00
55329;DHT22;41205;44.264;19.884;2023-04-15T13:47:18;563.90;1203.20
55329;DHT22;41205;44.264;19.884;2023-04-15T13:49:43;563.90;1126.40
55329;DHT22;41205;44.264;19.884;2023-04-15T13:52:10;563.80;1152.00
55329;DHT22;41205;44.264;19.884;2023-04-15T13:54:36;563.70;1126.40
55329;DHT22;41205;44.264;19.884;2023-04-15T13:57:02;563.60;1152.00
55329;DHT22;41205;44.264;19.884;2023-04-15T13:59:27;563.30;1152.00
55329;DHT22;41205;44.264;19.884;2023-04-15T14:01:53;563.20;1177.60
55329;DHT22;41205;44.264;19.884;2023-04-15T14:04:19;538.30;1203.20
55329;DHT22;41205;44.264;19.884;2023-04-15T14:06:45;538.20;1228.80
55329;DHT22;41205;44.264;19.884;2023-04-15T14:09:11;537.70;1254.40
55329;DHT22;41205;44.264;19.884;2023-04-15T14:11:39;537.80;1254.40
55329;DHT22;41205;44.264;19.884;2023-04-15T14:14:05;537.60;1254.40
55329;DHT22;41205;44.264;19.884;2023-04-15T14:16:34;512.50;1254.40
55329;DHT22;41205;44.264;19.884;2023-04-15T14:19:01;512.20;1254.40
55329;DHT22;41205;44.264;19.884;2023-04-15T14:21:26;512.70;1228.80
55329;DHT22;41205;44.264;19.884;2023-04-15T14:23:53;512.90;1228.80
55329;DHT22;41205;44.264;19.884;2023-04-15T14:26:20;537.80;1228.80
55329;DHT22;41205;44.264;19.884;2023-04-15T14:28:45;537.60;1228.80
55329;DHT22;41205;44.264;19.884;2023-04-15T14:31:12;512.80;1228.80
55329;DHT22;41205;44.264;19.884;2023-04-15T14:33:38;537.60;1254.40
55329;DHT22;41205;44.264;19.884;2023-04-15T14:36:06;537.70;1280.00
55329;DHT22;41205;44.264;19.884;2023-04-15T14:38:34;537.70;1280.00
55329;DHT22;41205;44.264;19.884;2023-04-15T14:41:06;512.70;1254.40
55329;DHT22;41205;44.264;19.884;2023-04-15T14:43:33;512.60;1254.40
55329;DHT22;41205;44.264;19.884;2023-04-15T14:45:58;512.70;1254.40
55329;DHT22;41205;44.264;19.884;2023-04-15T14:48:24;512.50;1254.40
55329;DHT22;41205;44.264;19.884;2023-04-15T14:50:51;512.50;1280.00
55329;DHT22;41205;44.264;19.884;2023-04-15T14:53:16;512.40;1254.40
55329;DHT22;41205;44.264;19.884;2023-04-15T14:55:42;512.40;1280.00
55329;DHT22;41205;44.264;19.884;2023-04-15T14:58:08;512.70;1280.00
55329;DHT22;41205;44.264;19.884;2023-04-15T15:00:35;512.70;1254.40
55329;DHT22;41205;44.264;19.884;2023-04-15T15:03:03;512.90;1305.60